createdAt,value
2019-03-04T00:01:14.553Z,7.27
2019-03-04T00:03:43.690Z,3.97
2019-03-04T00:06:12.739Z,4.50
2019-03-04T00:08:42.984Z,6.60
2019-03-04T00:11:12.021Z,4.73
2019-03-04T00:13:41.072Z,4.50
2019-03-04T00:16:10.076Z,3.53
2019-03-04T00:18:39.165Z,4.03
2019-03-04T00:21:08.159Z,4.47
2019-03-04T00:23:37.169Z,3.73
2019-03-04T00:26:06.248Z,4.00
2019-03-04T00:28:35.322Z,7.07
2019-03-04T00:31:04.354Z,5.40
2019-03-04T00:33:33.400Z,4.73
2019-03-04T00:36:02.563Z,4.10
2019-03-04T00:38:31.593Z,5.93
2019-03-04T00:41:00.553Z,4.67
2019-03-04T00:43:29.661Z,3.80
2019-03-04T00:45:58.737Z,5.30
2019-03-04T00:48:27.811Z,5.47
2019-03-04T00:50:56.871Z,4.27
2019-03-04T00:53:26.011Z,3.70
2019-03-04T00:55:55.038Z,5.13
2019-03-04T00:58:24.126Z,7.57
2019-03-04T01:00:53.206Z,4.10
2019-03-04T01:03:22.275Z,3.73
2019-03-04T01:05:51.317Z,2.73
2019-03-04T01:08:20.312Z,9.87
2019-03-04T01:10:49.328Z,3.70
2019-03-04T01:13:18.479Z,8.77
2019-03-04T01:15:47.507Z,4.00
2019-03-04T01:18:16.510Z,9.63
2019-03-04T01:20:45.553Z,4.23
2019-03-04T01:23:14.646Z,6.10
2019-03-04T01:25:43.771Z,4.20
2019-03-04T01:28:12.889Z,4.40
2019-03-04T01:30:41.945Z,5.77
2019-03-04T01:33:11.080Z,5.40
2019-03-04T01:35:40.149Z,3.57
2019-03-04T01:38:09.202Z,2.87
2019-03-04T01:40:38.199Z,4.83
2019-03-04T01:43:07.223Z,3.33
2019-03-04T01:45:36.393Z,3.73
2019-03-04T01:48:05.510Z,6.67
2019-03-04T01:50:34.656Z,3.00
2019-03-04T01:53:03.681Z,3.17
2019-03-04T01:55:32.721Z,2.97
2019-03-04T01:58:01.790Z,4.67
2019-03-04T02:00:30.866Z,2.83
2019-03-04T02:02:59.945Z,3.50
2019-03-04T02:05:29.093Z,7.60
2019-03-04T02:07:58.101Z,2.67
2019-03-04T02:10:27.147Z,4.13
2019-03-04T02:12:56.259Z,5.00
2019-03-04T02:15:25.372Z,2.60
2019-03-04T02:17:54.548Z,1.90
2019-03-04T02:20:23.614Z,1.43
2019-03-04T02:22:52.653Z,3.40
2019-03-04T02:25:37.553Z,7.10
2019-03-04T02:28:06.595Z,2.27
2019-03-04T02:30:35.593Z,3.20
2019-03-04T02:33:04.728Z,2.90
2019-03-04T02:35:33.793Z,3.47
2019-03-04T02:38:02.814Z,2.93
2019-03-04T02:40:31.900Z,1.80
2019-03-04T02:43:00.937Z,2.00
2019-03-04T02:45:30.006Z,7.17
2019-03-04T02:47:59.048Z,3.87
2019-03-04T02:50:28.127Z,2.93
2019-03-04T02:52:57.176Z,3.40
2019-03-04T02:55:26.202Z,3.60
2019-03-04T02:57:55.284Z,4.93
2019-03-04T03:00:24.439Z,2.63
2019-03-04T03:02:53.581Z,3.60
2019-03-04T03:05:22.581Z,2.53
2019-03-04T03:07:51.615Z,1.73
2019-03-04T03:10:20.652Z,3.03
2019-03-04T03:12:49.653Z,4.40
2019-03-04T03:15:19.969Z,3.60
2019-03-04T03:17:49.094Z,1.67
2019-03-04T03:20:37.347Z,2.73
2019-03-04T03:23:06.412Z,4.77
2019-03-04T03:25:35.505Z,1.93
2019-03-04T03:28:04.571Z,3.20
2019-03-04T03:30:33.611Z,1.53
2019-03-04T03:33:02.713Z,3.10
2019-03-04T03:35:31.744Z,3.20
2019-03-04T03:38:00.788Z,1.47
2019-03-04T03:40:29.772Z,1.40
2019-03-04T03:42:58.814Z,1.57
2019-03-04T03:45:27.942Z,2.00
2019-03-04T03:47:56.943Z,1.33
2019-03-04T03:50:26.095Z,1.30
2019-03-04T03:52:55.171Z,2.13
2019-03-04T03:55:24.307Z,2.07
2019-03-04T03:57:53.366Z,1.37
2019-03-04T04:00:22.453Z,5.00
2019-03-04T04:02:51.509Z,1.20
2019-03-04T04:05:20.599Z,1.47
2019-03-04T04:07:49.685Z,2.93
2019-03-04T04:10:18.718Z,6.73
2019-03-04T04:12:47.790Z,1.73
2019-03-04T04:15:16.918Z,1.77
2019-03-04T04:17:46.030Z,1.83
2019-03-04T04:20:15.049Z,2.70
2019-03-04T04:22:44.151Z,2.80
2019-03-04T04:25:13.457Z,2.97
2019-03-04T04:27:42.509Z,3.90
2019-03-04T04:30:12.002Z,2.20
2019-03-04T04:32:41.017Z,2.90
2019-03-04T04:35:10.345Z,3.13
2019-03-04T04:37:39.381Z,3.07
2019-03-04T04:40:08.571Z,1.90
2019-03-04T04:42:37.634Z,1.53
2019-03-04T04:45:06.698Z,2.00
2019-03-04T04:47:35.788Z,2.83
2019-03-04T04:50:05.640Z,3.17
2019-03-04T04:52:34.663Z,4.87
2019-03-04T04:55:03.754Z,3.23
2019-03-04T04:57:32.813Z,4.87
2019-03-04T05:00:01.905Z,1.70
2019-03-04T05:02:30.961Z,0.83
2019-03-04T05:05:00.053Z,1.27
2019-03-04T05:07:29.058Z,3.47
2019-03-04T05:09:58.052Z,4.47
2019-03-04T05:12:27.043Z,1.67
2019-03-04T05:14:56.058Z,4.23
2019-03-04T05:17:28.282Z,2.20
2019-03-04T05:19:57.395Z,2.40
2019-03-04T05:22:26.491Z,4.10
2019-03-04T05:24:55.557Z,2.60
2019-03-04T05:27:24.702Z,5.60
2019-03-04T05:29:53.851Z,3.80
2019-03-04T05:32:22.929Z,4.73
2019-03-04T05:34:51.985Z,3.90
2019-03-04T05:37:21.055Z,2.67
2019-03-04T05:39:50.286Z,4.80
2019-03-04T05:42:19.346Z,2.40
2019-03-04T05:44:48.374Z,6.00
2019-03-04T05:47:17.383Z,6.50
2019-03-04T05:49:46.397Z,9.90
2019-03-04T05:52:15.411Z,4.27
2019-03-04T05:54:44.446Z,7.87
2019-03-04T05:57:13.441Z,8.77
2019-03-04T05:59:42.454Z,3.43
2019-03-04T06:02:12.154Z,7.93
2019-03-04T06:04:42.956Z,6.23
2019-03-04T06:07:24.082Z,7.23
2019-03-04T06:09:53.100Z,2.73
2019-03-04T06:12:23.268Z,8.13
2019-03-04T06:14:52.324Z,5.33
2019-03-04T06:17:21.298Z,5.80
2019-03-04T06:19:50.358Z,6.20
2019-03-04T06:22:19.506Z,7.77
2019-03-04T06:24:48.631Z,5.20
2019-03-04T06:27:17.693Z,6.43
2019-03-04T06:29:46.869Z,6.43
2019-03-04T06:32:15.938Z,7.53
2019-03-04T06:34:44.947Z,5.20
2019-03-04T06:37:13.994Z,11.60
2019-03-04T06:39:43.114Z,8.53
2019-03-04T06:42:12.114Z,8.20
2019-03-04T06:44:41.073Z,10.10
2019-03-04T06:47:10.086Z,7.33
2019-03-04T06:49:39.137Z,8.53
2019-03-04T06:52:08.142Z,9.67
2019-03-04T06:55:00.722Z,18.80
2019-03-04T06:57:50.597Z,14.70
2019-03-04T07:00:58.373Z,11.67
2019-03-04T07:04:11.885Z,11.87
2019-03-04T07:06:40.881Z,15.10
2019-03-04T07:09:19.130Z,11.70
2019-03-04T07:11:52.557Z,12.20
2019-03-04T07:14:21.548Z,7.47
2019-03-04T07:16:51.537Z,9.40
2019-03-04T07:19:21.939Z,10.13
2019-03-04T07:21:50.985Z,8.00
2019-03-04T07:24:19.979Z,9.93
2019-03-04T07:26:49.220Z,7.07
2019-03-04T07:29:18.255Z,7.17
2019-03-04T07:32:06.495Z,8.57
2019-03-04T07:34:35.562Z,6.10
2019-03-04T07:37:04.638Z,5.50
2019-03-04T07:39:33.694Z,6.37
2019-03-04T07:42:03.925Z,5.67
2019-03-04T07:44:32.925Z,6.27
2019-03-04T07:47:01.937Z,2.97
2019-03-04T07:49:31.011Z,4.77
2019-03-04T07:52:00.049Z,5.90
2019-03-04T07:54:29.103Z,5.03
2019-03-04T07:56:58.137Z,3.13
2019-03-04T07:59:27.166Z,3.77
2019-03-04T08:01:56.196Z,3.37
2019-03-04T08:04:25.217Z,1.30
2019-03-04T08:07:22.663Z,6.60
2019-03-04T08:10:33.029Z,6.53
2019-03-04T08:13:30.247Z,5.57
2019-03-04T08:15:59.836Z,9.13
2019-03-04T08:18:48.063Z,1.67
2019-03-04T08:21:17.108Z,4.53
2019-03-04T08:23:46.135Z,9.47
2019-03-04T08:26:15.105Z,2.23
2019-03-04T08:28:45.072Z,5.67
2019-03-04T08:31:14.045Z,4.17
2019-03-04T08:33:43.043Z,4.57
2019-03-04T08:36:11.998Z,4.50
2019-03-04T08:38:41.018Z,6.03
2019-03-04T08:41:10.104Z,5.97
2019-03-04T08:43:39.237Z,3.27
2019-03-04T08:46:08.266Z,3.30
2019-03-04T08:48:37.292Z,6.43
2019-03-04T08:51:06.431Z,5.40
2019-03-04T08:53:35.502Z,3.60
2019-03-04T08:56:04.530Z,7.13
2019-03-04T08:58:34.426Z,2.70
2019-03-04T09:01:03.590Z,4.70
2019-03-04T09:03:32.559Z,2.87
2019-03-04T09:06:01.592Z,3.43
2019-03-04T09:08:30.657Z,4.83
2019-03-04T09:10:59.680Z,6.93
2019-03-04T09:13:28.705Z,6.17
2019-03-04T09:15:57.786Z,10.40
2019-03-04T09:18:26.847Z,5.67
2019-03-04T09:20:56.460Z,6.03
2019-03-04T09:23:25.484Z,3.97
2019-03-04T09:25:59.093Z,3.57
2019-03-04T09:28:28.206Z,7.43
2019-03-04T09:30:57.339Z,13.20
2019-03-04T09:33:26.474Z,8.60
2019-03-04T09:35:55.619Z,7.87
2019-03-04T09:38:24.695Z,6.13
2019-03-04T09:40:53.718Z,5.87
2019-03-04T09:43:22.893Z,6.57
2019-03-04T09:45:52.015Z,6.77
2019-03-04T09:48:21.051Z,7.23
2019-03-04T09:50:50.076Z,7.70
2019-03-04T09:53:23.531Z,6.90
2019-03-04T09:55:53.047Z,8.33
2019-03-04T09:58:24.020Z,6.27
2019-03-04T10:01:12.117Z,11.80
2019-03-04T10:04:10.392Z,13.70
2019-03-04T10:07:26.005Z,9.57
2019-03-04T10:10:21.159Z,5.97
2019-03-04T10:13:19.741Z,8.87
2019-03-04T10:16:21.646Z,7.43
2019-03-04T10:19:27.594Z,11.37
2019-03-04T10:22:11.328Z,12.00
2019-03-04T10:25:42.703Z,5.93
2019-03-04T10:28:51.680Z,10.97
2019-03-04T10:32:17.133Z,9.63
2019-03-04T10:35:17.661Z,8.93
2019-03-04T10:38:11.109Z,6.27
2019-03-04T10:41:28.892Z,11.30
2019-03-04T10:44:09.849Z,12.30
2019-03-04T10:46:55.850Z,10.70
2019-03-04T10:49:26.182Z,11.07
2019-03-04T10:51:55.202Z,9.27
2019-03-04T10:54:24.457Z,16.30
2019-03-04T10:56:53.559Z,11.87
2019-03-04T10:59:22.592Z,11.23
2019-03-04T11:01:51.700Z,9.60
2019-03-04T11:04:20.779Z,7.60
2019-03-04T11:06:49.830Z,10.07
2019-03-04T11:09:18.965Z,8.97
2019-03-04T11:11:48.021Z,13.57
2019-03-04T11:14:17.075Z,14.23
2019-03-04T11:16:46.121Z,13.67
2019-03-04T11:19:15.124Z,10.80
2019-03-04T11:21:44.172Z,12.53
2019-03-04T11:24:13.542Z,18.80
2019-03-04T11:26:42.614Z,13.87
2019-03-04T11:29:13.400Z,16.63
2019-03-04T11:31:42.546Z,23.07
2019-03-04T11:34:11.595Z,12.77
2019-03-04T11:36:40.762Z,14.17
2019-03-04T11:39:59.775Z,6.80
2019-03-04T11:42:30.086Z,8.23
2019-03-04T11:44:59.200Z,11.93
2019-03-04T11:47:28.216Z,7.87
2019-03-04T11:49:57.358Z,10.67
2019-03-04T11:52:45.614Z,13.10
2019-03-04T11:55:14.842Z,14.87
2019-03-04T11:57:43.834Z,11.57
2019-03-04T12:00:20.107Z,10.03
2019-03-04T12:02:49.111Z,7.53
2019-03-04T12:05:18.144Z,7.20
2019-03-04T12:07:47.228Z,12.40
2019-03-04T12:10:16.297Z,13.07
2019-03-04T12:12:45.397Z,6.00
2019-03-04T12:15:15.609Z,11.57
2019-03-04T12:17:44.656Z,8.20
2019-03-04T12:20:13.746Z,10.63
2019-03-04T12:22:42.762Z,9.60
2019-03-04T12:25:13.342Z,9.57
2019-03-04T12:27:42.410Z,8.47
2019-03-04T12:30:14.918Z,10.87
2019-03-04T12:32:45.107Z,13.47
2019-03-04T12:35:14.735Z,8.57
2019-03-04T12:37:43.735Z,14.63
2019-03-04T12:40:13.726Z,7.33
2019-03-04T12:42:42.826Z,10.73
2019-03-04T12:45:13.755Z,10.77
2019-03-04T12:47:43.010Z,8.10
2019-03-04T12:50:18.024Z,8.17
2019-03-04T12:52:48.446Z,8.00
2019-03-04T12:55:17.484Z,11.27
2019-03-04T12:57:46.504Z,11.30
2019-03-04T13:00:18.218Z,10.10
2019-03-04T13:02:54.331Z,6.87
2019-03-04T13:05:17.994Z,12.33
2019-03-04T13:07:47.062Z,9.93
2019-03-04T13:10:16.087Z,8.53
2019-03-04T13:12:45.167Z,9.30
2019-03-04T13:15:16.452Z,6.03
2019-03-04T13:17:45.518Z,6.50
2019-03-04T13:20:15.190Z,8.73
2019-03-04T13:22:44.268Z,10.70
2019-03-04T13:25:13.381Z,9.50
2019-03-04T13:27:42.517Z,7.63
2019-03-04T13:30:14.498Z,7.93
2019-03-04T13:32:43.521Z,10.50
2019-03-04T13:35:23.787Z,7.87
2019-03-04T13:37:44.483Z,11.33
2019-03-04T13:40:13.547Z,9.00
2019-03-04T13:42:42.555Z,7.73
2019-03-04T13:45:12.526Z,8.97
2019-03-04T13:47:41.677Z,11.20
2019-03-04T13:50:13.784Z,9.70
2019-03-04T13:52:44.484Z,6.10
2019-03-04T13:55:13.578Z,9.20
2019-03-04T13:57:42.613Z,4.70
2019-03-04T14:00:14.846Z,6.87
2019-03-04T14:02:45.059Z,12.43
2019-03-04T14:05:14.734Z,8.27
2019-03-04T14:07:43.885Z,8.03
2019-03-04T14:10:13.921Z,16.50
2019-03-04T14:12:42.979Z,11.50
2019-03-04T14:15:20.902Z,8.37
2019-03-04T14:17:49.997Z,13.03
2019-03-04T14:20:19.030Z,8.33
2019-03-04T14:22:57.195Z,8.97
2019-03-04T14:25:20.174Z,9.00
2019-03-04T14:27:49.202Z,13.30
2019-03-04T14:30:18.282Z,8.67
2019-03-04T14:32:47.275Z,8.07
2019-03-04T14:35:16.353Z,12.40
2019-03-04T14:37:45.420Z,10.47
2019-03-04T14:40:15.469Z,8.80
2019-03-04T14:42:44.561Z,8.20
2019-03-04T14:45:15.882Z,7.40
2019-03-04T14:47:44.854Z,8.93
2019-03-04T14:50:14.921Z,6.47
2019-03-04T14:52:43.994Z,8.73
2019-03-04T14:55:15.049Z,7.60
2019-03-04T14:57:44.249Z,7.00
2019-03-04T15:00:23.582Z,5.63
2019-03-04T15:02:52.633Z,6.23
2019-03-04T15:05:21.682Z,7.77
2019-03-04T15:07:50.707Z,5.20
2019-03-04T15:10:19.839Z,6.57
2019-03-04T15:12:48.898Z,9.33
2019-03-04T15:15:18.356Z,11.00
2019-03-04T15:17:47.422Z,5.57
2019-03-04T15:20:18.323Z,11.23
2019-03-04T15:22:47.333Z,8.27
2019-03-04T15:25:21.685Z,7.10
2019-03-04T15:27:50.754Z,8.57
2019-03-04T15:30:19.848Z,11.03
2019-03-04T15:32:49.861Z,8.70
2019-03-04T15:35:18.890Z,6.60
2019-03-04T15:37:47.960Z,8.30
2019-03-04T15:40:16.952Z,8.40
2019-03-04T15:42:45.962Z,8.63
2019-03-04T15:45:15.100Z,7.80
2019-03-04T15:47:44.285Z,11.30
2019-03-04T15:50:13.334Z,9.57
2019-03-04T15:52:42.371Z,10.33
2019-03-04T15:55:11.544Z,9.77
2019-03-04T15:57:40.609Z,6.70
2019-03-04T16:00:10.632Z,11.80
2019-03-04T16:02:39.675Z,7.23
2019-03-04T16:05:09.870Z,6.27
2019-03-04T16:07:39.010Z,7.30
2019-03-04T16:10:10.326Z,11.50
2019-03-04T16:12:39.491Z,5.70
2019-03-04T16:15:10.271Z,6.93
2019-03-04T16:17:39.277Z,5.43
2019-03-04T16:20:15.918Z,9.13
2019-03-04T16:22:42.004Z,5.83
2019-03-04T16:25:11.106Z,12.23
2019-03-04T16:27:40.061Z,7.20
2019-03-04T16:30:12.111Z,6.87
2019-03-04T16:32:42.123Z,8.30
2019-03-04T16:35:30.361Z,8.40
2019-03-04T16:37:59.363Z,8.80
2019-03-04T16:40:28.315Z,11.13
2019-03-04T16:42:57.327Z,9.43
2019-03-04T16:45:26.374Z,8.40
2019-03-04T16:47:55.532Z,9.63
2019-03-04T16:50:24.781Z,10.73
2019-03-04T16:52:53.920Z,14.33
2019-03-04T16:55:22.988Z,6.57
2019-03-04T16:57:52.027Z,7.10
2019-03-04T17:00:21.683Z,7.43
2019-03-04T17:02:50.702Z,15.43
2019-03-04T17:05:19.808Z,5.67
2019-03-04T17:07:50.837Z,11.13
2019-03-04T17:10:19.691Z,7.77
2019-03-04T17:12:48.789Z,6.03
2019-03-04T17:15:18.765Z,7.03
2019-03-04T17:17:47.804Z,5.87
2019-03-04T17:20:16.844Z,7.67
2019-03-04T17:22:45.920Z,8.47
2019-03-04T17:25:15.493Z,10.23
2019-03-04T17:27:44.814Z,6.30
2019-03-04T17:30:15.635Z,7.83
2019-03-04T17:32:44.727Z,6.97
2019-03-04T17:35:17.466Z,11.47
2019-03-04T17:37:46.450Z,10.13
2019-03-04T17:40:16.223Z,9.57
2019-03-04T17:42:45.246Z,9.57
2019-03-04T17:45:15.193Z,14.43
2019-03-04T17:47:44.393Z,7.03
2019-03-04T17:50:16.347Z,7.73
2019-03-04T17:52:45.760Z,6.33
2019-03-04T17:55:14.910Z,8.30
2019-03-04T17:57:43.981Z,12.53
2019-03-04T18:00:13.777Z,9.20
2019-03-04T18:02:42.950Z,12.40
2019-03-04T18:05:11.975Z,11.13
2019-03-04T18:07:41.110Z,11.73
2019-03-04T18:10:12.249Z,11.33
2019-03-04T18:12:41.300Z,11.17
2019-03-04T18:15:13.390Z,11.77
2019-03-04T18:17:42.550Z,12.80
2019-03-04T18:20:12.244Z,13.13
2019-03-04T18:22:41.427Z,8.87
2019-03-04T18:25:14.883Z,13.43
2019-03-04T18:27:55.748Z,13.33
2019-03-04T18:30:58.227Z,17.80
2019-03-04T18:33:50.683Z,17.50
2019-03-04T18:36:43.895Z,13.63
2019-03-04T18:39:48.863Z,15.03
2019-03-04T18:43:00.513Z,21.67
2019-03-04T18:45:58.176Z,13.30
2019-03-04T18:49:06.898Z,13.93
2019-03-04T18:51:36.435Z,11.10
2019-03-04T18:54:24.687Z,13.33
2019-03-04T18:56:53.847Z,14.13
2019-03-04T18:59:22.914Z,10.70
2019-03-04T19:01:52.079Z,14.00
2019-03-04T19:04:21.199Z,15.33
2019-03-04T19:06:50.197Z,16.00
2019-03-04T19:09:19.258Z,14.23
2019-03-04T19:11:48.310Z,13.87
2019-03-04T19:14:17.393Z,15.30
2019-03-04T19:16:46.455Z,12.50
2019-03-04T19:19:15.465Z,12.93
2019-03-04T19:21:44.493Z,15.27
2019-03-04T19:24:13.607Z,11.00
2019-03-04T19:26:42.611Z,10.80
2019-03-04T19:29:11.647Z,9.77
2019-03-04T19:31:40.721Z,8.73
2019-03-04T19:34:09.777Z,8.33
2019-03-04T19:36:38.853Z,7.47
2019-03-04T19:39:08.214Z,8.07
2019-03-04T19:41:37.290Z,5.97
2019-03-04T19:44:06.346Z,9.87
2019-03-04T19:46:35.310Z,6.37
2019-03-04T19:49:04.407Z,4.97
2019-03-04T19:51:33.407Z,5.97
2019-03-04T19:54:02.431Z,9.60
2019-03-04T19:56:31.495Z,8.10
2019-03-04T19:59:00.598Z,6.83
2019-03-04T20:01:29.669Z,8.80
2019-03-04T20:03:58.710Z,7.63
2019-03-04T20:06:27.769Z,10.13
2019-03-04T20:08:56.891Z,8.07
2019-03-04T20:11:25.889Z,12.50
2019-03-04T20:13:54.927Z,11.07
2019-03-04T20:16:24.014Z,7.90
2019-03-04T20:18:53.179Z,9.87
2019-03-04T20:21:22.227Z,5.93
2019-03-04T20:23:51.393Z,9.37
2019-03-04T20:26:20.406Z,4.33
2019-03-04T20:28:49.417Z,6.73
2019-03-04T20:31:18.568Z,5.23
2019-03-04T20:33:47.673Z,3.77
2019-03-04T20:36:16.761Z,7.70
2019-03-04T20:38:47.343Z,5.50
2019-03-04T20:41:16.393Z,4.53
2019-03-04T20:43:45.431Z,10.23
2019-03-04T20:46:14.511Z,5.83
2019-03-04T20:48:43.544Z,6.53
2019-03-04T20:51:14.943Z,6.17
2019-03-04T20:53:44.077Z,12.80
2019-03-04T20:56:13.114Z,10.47
2019-03-04T20:58:42.274Z,5.27
2019-03-04T21:01:11.344Z,10.60
2019-03-04T21:03:40.359Z,8.60
2019-03-04T21:06:09.473Z,6.03
2019-03-04T21:08:38.570Z,9.57
2019-03-04T21:11:07.602Z,13.33
2019-03-04T21:13:36.857Z,7.33
2019-03-04T21:16:05.937Z,6.77
2019-03-04T21:18:35.101Z,10.63
2019-03-04T21:21:04.564Z,11.07
2019-03-04T21:23:33.588Z,5.30
2019-03-04T21:26:06.338Z,6.23
2019-03-04T21:29:02.974Z,6.70
2019-03-04T21:31:42.895Z,12.03
2019-03-04T21:34:50.694Z,10.40
2019-03-04T21:37:43.170Z,8.83
2019-03-04T21:40:18.826Z,9.37
2019-03-04T21:42:58.636Z,7.67
2019-03-04T21:46:03.848Z,7.83
2019-03-04T21:48:53.765Z,10.67
2019-03-04T21:51:43.548Z,6.23
2019-03-04T21:54:12.587Z,11.03
2019-03-04T21:56:53.446Z,9.40
2019-03-04T21:59:22.458Z,9.93
2019-03-04T22:02:04.738Z,10.83
2019-03-04T22:04:33.806Z,13.13
2019-03-04T22:07:02.855Z,12.60
2019-03-04T22:09:31.807Z,13.10
2019-03-04T22:12:00.887Z,11.67
2019-03-04T22:14:29.945Z,9.93
2019-03-04T22:16:59.030Z,10.77
2019-03-04T22:19:28.072Z,9.00
2019-03-04T22:21:57.195Z,11.07
2019-03-04T22:24:26.336Z,15.87
2019-03-04T22:26:55.383Z,14.63
2019-03-04T22:29:24.419Z,11.00
2019-03-04T22:31:53.466Z,13.47
2019-03-04T22:34:22.562Z,14.17
2019-03-04T22:36:51.696Z,12.57
2019-03-04T22:39:20.849Z,15.43
2019-03-04T22:41:49.905Z,13.60
2019-03-04T22:44:18.913Z,13.50
2019-03-04T22:46:47.947Z,15.23
2019-03-04T22:49:17.014Z,13.43
2019-03-04T22:51:46.074Z,11.80
2019-03-04T22:54:15.093Z,12.73
2019-03-04T22:56:44.122Z,22.90
2019-03-04T22:59:13.193Z,10.53
2019-03-04T23:02:06.865Z,19.33
2019-03-04T23:04:47.602Z,16.90
2019-03-04T23:07:22.114Z,12.57
2019-03-04T23:10:33.122Z,11.57
2019-03-04T23:13:27.365Z,11.03
2019-03-04T23:15:57.597Z,15.33
2019-03-04T23:18:26.604Z,19.70
2019-03-04T23:20:55.626Z,11.13
2019-03-04T23:23:25.963Z,19.40
2019-03-04T23:25:56.360Z,14.33
2019-03-04T23:28:25.560Z,11.67
2019-03-04T23:30:54.516Z,10.57
2019-03-04T23:33:23.535Z,12.27
2019-03-04T23:35:52.532Z,19.93
2019-03-04T23:38:21.564Z,8.70
2019-03-04T23:40:50.548Z,10.73
2019-03-04T23:43:19.665Z,15.40
2019-03-04T23:45:48.782Z,16.10
2019-03-04T23:48:17.893Z,14.87
2019-03-04T23:50:46.894Z,19.03
2019-03-04T23:53:15.921Z,12.43
2019-03-04T23:55:44.955Z,16.70
2019-03-04T23:58:13.949Z,16.73
